createdAt,value
2015-10-19T00:00:09.102Z,73193
2015-10-19T00:00:21.431Z,73192
2015-10-19T00:00:33.759Z,73197
2015-10-19T00:00:46.087Z,73195
2015-10-19T00:00:57.696Z,73195
2015-10-19T00:01:10.043Z,73200
2015-10-19T00:01:22.387Z,73198
2015-10-19T00:01:34.730Z,73187
2015-10-19T00:01:47.074Z,73190
2015-10-19T00:01:58.715Z,73194
2015-10-19T00:02:11.030Z,73199
2015-10-19T00:02:23.202Z,73201
2015-10-19T00:02:35.546Z,73199
2015-10-19T00:02:47.858Z,73190
2015-10-19T00:03:00.218Z,73192
2015-10-19T00:03:12.549Z,73187
2015-10-19T00:03:24.908Z,73187
2015-10-19T00:03:37.236Z,73192
2015-10-19T00:03:49.565Z,73198
2015-10-19T00:04:01.893Z,73202
2015-10-19T00:04:14.224Z,73197
2015-10-19T00:04:26.552Z,73191
2015-10-19T00:04:38.896Z,73196
2015-10-19T00:04:50.536Z,73198
2015-10-19T00:05:02.896Z,73209
2015-10-19T00:05:15.257Z,73203
2015-10-19T00:05:27.585Z,73208
2015-10-19T00:05:39.929Z,73203
2015-10-19T00:05:52.257Z,73198
2015-10-19T00:06:04.601Z,73197
2015-10-19T00:06:16.931Z,73200
2015-10-19T00:06:29.259Z,73204
2015-10-19T00:06:41.603Z,73202
2015-10-19T00:06:53.947Z,73204
2015-10-19T00:07:06.306Z,73207
2015-10-19T00:07:18.668Z,73217
2015-10-19T00:07:31.028Z,73206
2015-10-19T00:07:43.403Z,73211
2015-10-19T00:07:55.731Z,73205
2015-10-19T00:08:08.043Z,73210
2015-10-19T00:08:20.374Z,73213
2015-10-19T00:08:32.703Z,73211
2015-10-19T00:08:45.015Z,73211
2015-10-19T00:08:57.343Z,73207
2015-10-19T00:09:09.659Z,73203
2015-10-19T00:09:21.987Z,73201
2015-10-19T00:09:34.315Z,73209
2015-10-19T00:09:46.659Z,73210
2015-10-19T00:09:59.018Z,73215
2015-10-19T00:10:11.396Z,73217
2015-10-19T00:10:23.724Z,73214
2015-10-19T00:10:36.037Z,73214
2015-10-19T00:10:48.365Z,73216
2015-10-19T00:11:00.693Z,73213
2015-10-19T00:11:13.023Z,73215
2015-10-19T00:11:25.367Z,73213
2015-10-19T00:11:37.695Z,73202
2015-10-19T00:11:50.023Z,73206
2015-10-19T00:12:02.382Z,73202
2015-10-19T00:12:14.729Z,73199
2015-10-19T00:12:27.104Z,73201
2015-10-19T00:12:39.464Z,73202
2015-10-19T00:12:51.807Z,73201
2015-10-19T00:13:04.135Z,73199
2015-10-19T00:13:16.467Z,73205
2015-10-19T00:13:28.638Z,73210
2015-10-19T00:13:40.967Z,73212
2015-10-19T00:13:53.295Z,73204
2015-10-19T00:14:05.623Z,73213
2015-10-19T00:14:17.954Z,73214
2015-10-19T00:14:30.298Z,73215
2015-10-19T00:14:42.657Z,73215
2015-10-19T00:14:55.016Z,73212
2015-10-19T00:15:07.360Z,73210
2015-10-19T00:15:19.690Z,73211
2015-10-19T00:15:32.018Z,73211
2015-10-19T00:15:44.331Z,73219
2015-10-19T00:15:56.659Z,73208
2015-10-19T00:16:08.987Z,73211
2015-10-19T00:16:21.318Z,73213
2015-10-19T00:16:33.506Z,73216
2015-10-19T00:16:45.850Z,73213
2015-10-19T00:16:58.209Z,73222
2015-10-19T00:17:10.818Z,73221
2015-10-19T00:17:23.149Z,73220
2015-10-19T00:17:35.478Z,73220
2015-10-19T00:17:47.806Z,73219
2015-10-19T00:18:00.134Z,73217
2015-10-19T00:18:12.478Z,73218
2015-10-19T00:18:24.808Z,73215
2015-10-19T00:18:37.136Z,73219
2015-10-19T00:18:49.480Z,73223
2015-10-19T00:19:01.839Z,73224
2015-10-19T00:19:14.198Z,73224
2015-10-19T00:19:26.529Z,73225
2015-10-19T00:19:38.858Z,73221
2015-10-19T00:19:51.201Z,73222
2015-10-19T00:20:03.529Z,73217
2015-10-19T00:20:15.858Z,73210
2015-10-19T00:20:28.204Z,73215
2015-10-19T00:20:40.548Z,73212
2015-10-19T00:20:52.907Z,73219
2015-10-19T00:21:05.282Z,73216
2015-10-19T00:21:17.595Z,73219
2015-10-19T00:21:29.223Z,73212
2015-10-19T00:21:41.551Z,73212
2015-10-19T00:21:53.879Z,73212
2015-10-19T00:22:06.207Z,73214
2015-10-19T00:22:18.535Z,73211
2015-10-19T00:22:30.881Z,73208
2015-10-19T00:22:43.209Z,73208
2015-10-19T00:22:55.569Z,73213
2015-10-19T00:23:07.209Z,73212
2015-10-19T00:23:19.569Z,73211
2015-10-19T00:23:31.978Z,73209
2015-10-19T00:23:44.306Z,73206
2015-10-19T00:23:56.634Z,73211
2015-10-19T00:24:08.962Z,73213
2015-10-19T00:24:21.290Z,73215
2015-10-19T00:24:33.652Z,73208
2015-10-19T00:24:45.980Z,73215
2015-10-19T00:24:58.324Z,73210
2015-10-19T00:25:10.667Z,73208
2015-10-19T00:25:23.014Z,73201
2015-10-19T00:25:35.358Z,73208
2015-10-19T00:25:47.702Z,73210
2015-10-19T00:26:00.030Z,73207
2015-10-19T00:26:12.358Z,73204
2015-10-19T00:26:24.705Z,73200
2015-10-19T00:26:37.033Z,73200
2015-10-19T00:26:49.377Z,73208
2015-10-19T00:27:01.736Z,73205
2015-10-19T00:27:14.095Z,73211
2015-10-19T00:27:26.442Z,73211
2015-10-19T00:27:38.770Z,73205
2015-10-19T00:27:51.098Z,73199
2015-10-19T00:28:03.426Z,73195
2015-10-19T00:28:15.755Z,73196
2015-10-19T00:28:28.086Z,73201
2015-10-19T00:28:40.414Z,73212
2015-10-19T00:28:52.773Z,73213
2015-10-19T00:29:05.133Z,73217
2015-10-19T00:29:17.492Z,73211
2015-10-19T00:29:29.838Z,73212
2015-10-19T00:29:42.166Z,73212
2015-10-19T00:29:54.478Z,73213
2015-10-19T00:30:06.822Z,73210
2015-10-19T00:30:19.150Z,73206
2015-10-19T00:30:31.497Z,73210
2015-10-19T00:30:43.825Z,73212
2015-10-19T00:30:56.169Z,73213
2015-10-19T00:31:08.528Z,73213
2015-10-19T00:31:20.856Z,73210
2015-10-19T00:31:33.187Z,73210
2015-10-19T00:31:45.516Z,73212
2015-10-19T00:31:57.844Z,73207
2015-10-19T00:32:10.172Z,73204
2015-10-19T00:32:22.500Z,73210
2015-10-19T00:32:34.830Z,73208
2015-10-19T00:32:47.174Z,73211
2015-10-19T00:32:59.518Z,73215
2015-10-19T00:33:11.877Z,73216
2015-10-19T00:33:24.221Z,73207
2015-10-19T00:33:36.552Z,73210
2015-10-19T00:33:48.896Z,73204
2015-10-19T00:34:01.239Z,73206
2015-10-19T00:34:13.567Z,73209
2015-10-19T00:34:25.896Z,73207
2015-10-19T00:34:38.227Z,73211
2015-10-19T00:34:50.570Z,73213
2015-10-19T00:35:02.899Z,73208
2015-10-19T00:35:15.258Z,73213
2015-10-19T00:35:27.617Z,73212
2015-10-19T00:35:39.980Z,73205
2015-10-19T00:35:52.339Z,73202
2015-10-19T00:36:04.667Z,73206
2015-10-19T00:36:16.995Z,73206
2015-10-19T00:36:29.323Z,73210
2015-10-19T00:36:41.655Z,73207
2015-10-19T00:36:53.967Z,73209
2015-10-19T00:37:06.311Z,73209
2015-10-19T00:37:18.655Z,73204
2015-10-19T00:37:30.983Z,73210
2015-10-19T00:37:43.345Z,73209
2015-10-19T00:37:55.704Z,73211
2015-10-19T00:38:08.033Z,73210
2015-10-19T00:38:20.361Z,73208
2015-10-19T00:38:32.691Z,73205
2015-10-19T00:38:45.019Z,73205
2015-10-19T00:38:57.347Z,73200
2015-10-19T00:39:09.675Z,73194
2015-10-19T00:39:22.003Z,73194
2015-10-19T00:39:34.350Z,73200
2015-10-19T00:39:46.694Z,73199
2015-10-19T00:39:59.053Z,73200
2015-10-19T00:40:11.397Z,73202
2015-10-19T00:40:23.725Z,73204
2015-10-19T00:40:36.072Z,73201
2015-10-19T00:40:48.400Z,73201
2015-10-19T00:41:00.728Z,73206
2015-10-19T00:41:13.041Z,73201
2015-10-19T00:41:25.369Z,73195
2015-10-19T00:41:37.714Z,73194
2015-10-19T00:41:50.058Z,73192
2015-10-19T00:42:02.418Z,73193
2015-10-19T00:42:14.761Z,73193
2015-10-19T00:42:27.105Z,73199
2015-10-19T00:42:39.436Z,73202
2015-10-19T00:42:51.764Z,73199
2015-10-19T00:43:04.108Z,73197
2015-10-19T00:43:16.452Z,73196
2015-10-19T00:43:28.796Z,73199
2015-10-19T00:43:41.157Z,73198
2015-10-19T00:43:53.532Z,73202
2015-10-19T00:44:05.844Z,73200
2015-10-19T00:44:18.157Z,73197
2015-10-19T00:44:30.469Z,73196
2015-10-19T00:44:42.785Z,73199
2015-10-19T00:44:55.113Z,73203
2015-10-19T00:45:07.441Z,73205
2015-10-19T00:45:19.769Z,73207
2015-10-19T00:45:32.113Z,73204
2015-10-19T00:45:44.460Z,73201
2015-10-19T00:45:56.804Z,73202
2015-10-19T00:46:09.132Z,73198
2015-10-19T00:46:21.460Z,73197
2015-10-19T00:46:33.788Z,73203
2015-10-19T00:46:46.118Z,73201
2015-10-19T00:46:58.462Z,73204
2015-10-19T00:47:10.806Z,73202
2015-10-19T00:47:23.165Z,73204
2015-10-19T00:47:35.509Z,73200
2015-10-19T00:47:47.840Z,73202
2015-10-19T00:48:00.168Z,73196
2015-10-19T00:48:12.496Z,73197
2015-10-19T00:48:24.824Z,73196
2015-10-19T00:48:37.152Z,73196
2015-10-19T00:48:49.483Z,73199
2015-10-19T00:49:01.108Z,73200
2015-10-19T00:49:13.452Z,73203
2015-10-19T00:49:25.796Z,73201
2015-10-19T00:49:38.174Z,73199
2015-10-19T00:49:50.502Z,73200
2015-10-19T00:50:02.830Z,73198
2015-10-19T00:50:15.158Z,73201
2015-10-19T00:50:27.486Z,73201
2015-10-19T00:50:39.832Z,73202
2015-10-19T00:50:52.176Z,73204
2015-10-19T00:51:04.504Z,73200
2015-10-19T00:51:16.848Z,73206
2015-10-19T00:51:29.192Z,73204
2015-10-19T00:51:41.523Z,73204
2015-10-19T00:51:53.851Z,73204
2015-10-19T00:52:06.179Z,73203
2015-10-19T00:52:18.523Z,73202
2015-10-19T00:52:30.882Z,73207
2015-10-19T00:52:43.244Z,73206
2015-10-19T00:52:55.604Z,73208
2015-10-19T00:53:07.979Z,73205
2015-10-19T00:53:20.291Z,73211
2015-10-19T00:53:32.619Z,73201
2015-10-19T00:53:44.951Z,73209
2015-10-19T00:53:57.279Z,73202
2015-10-19T00:54:09.622Z,73204
2015-10-19T00:54:21.951Z,73205
2015-10-19T00:54:34.279Z,73199
2015-10-19T00:54:45.765Z,73200
2015-10-19T00:54:58.109Z,73207
2015-10-19T00:55:10.468Z,73200
2015-10-19T00:55:22.843Z,73200
2015-10-19T00:55:35.203Z,73203
2015-10-19T00:55:47.549Z,73201
2015-10-19T00:55:59.893Z,73201
2015-10-19T00:56:12.221Z,73204
2015-10-19T00:56:24.549Z,73195
2015-10-19T00:56:36.893Z,73198
2015-10-19T00:56:49.209Z,73193
2015-10-19T00:57:01.537Z,73195
2015-10-19T00:57:13.880Z,73200
2015-10-19T00:57:26.224Z,73199
2015-10-19T00:57:38.584Z,73203
2015-10-19T00:57:50.243Z,73208
2015-10-19T00:58:02.571Z,73206
2015-10-19T00:58:14.899Z,73209
2015-10-19T00:58:27.243Z,73207
2015-10-19T00:58:39.571Z,73208
2015-10-19T00:58:51.901Z,73207
2015-10-19T00:59:04.229Z,73208
2015-10-19T00:59:16.557Z,73212
2015-10-19T00:59:28.901Z,73214
2015-10-19T00:59:41.245Z,73209
2015-10-19T00:59:53.592Z,73210
2015-10-19T01:00:05.951Z,73208
2015-10-19T01:00:18.295Z,73207
2015-10-19T01:00:30.498Z,73212
2015-10-19T01:00:42.826Z,73206
2015-10-19T01:00:55.156Z,73208
2015-10-19T01:01:07.484Z,73207
2015-10-19T01:01:19.797Z,73202
2015-10-19T01:01:32.125Z,73202
2015-10-19T01:01:44.453Z,73201
2015-10-19T01:01:56.801Z,73208
2015-10-19T01:02:09.160Z,73208
2015-10-19T01:02:21.519Z,73210
2015-10-19T01:02:33.879Z,73211
2015-10-19T01:02:46.223Z,73207
2015-10-19T01:02:58.553Z,73203
2015-10-19T01:03:10.881Z,73206
2015-10-19T01:03:23.193Z,73200
2015-10-19T01:03:35.521Z,73194
2015-10-19T01:03:47.850Z,73200
2015-10-19T01:04:00.181Z,73199
2015-10-19T01:04:12.524Z,73208
2015-10-19T01:04:24.853Z,73205
2015-10-19T01:04:37.212Z,73210
2015-10-19T01:04:49.559Z,73213
2015-10-19T01:05:01.965Z,73211
2015-10-19T01:05:14.309Z,73213
2015-10-19T01:05:26.637Z,73212
2015-10-19T01:05:38.949Z,73210
2015-10-19T01:05:51.279Z,73208
2015-10-19T01:06:03.608Z,73213
2015-10-19T01:06:15.936Z,73212
2015-10-19T01:06:28.264Z,73208
2015-10-19T01:06:40.592Z,73211
2015-10-19T01:06:52.954Z,73211
2015-10-19T01:07:05.298Z,73211
2015-10-19T01:07:17.642Z,73211
2015-10-19T01:07:29.970Z,73206
2015-10-19T01:07:42.298Z,73212
2015-10-19T01:07:54.629Z,73210
2015-10-19T01:08:06.957Z,73213
2015-10-19T01:08:18.598Z,73205
2015-10-19T01:08:30.942Z,73210
2015-10-19T01:08:43.301Z,73215
2015-10-19T01:08:55.679Z,73208
2015-10-19T01:09:08.038Z,73212
2015-10-19T01:09:20.367Z,73214
2015-10-19T01:09:32.679Z,73210
2015-10-19T01:09:45.038Z,73204
2015-10-19T01:09:57.369Z,73204
2015-10-19T01:10:09.712Z,73202
2015-10-19T01:10:22.040Z,73201
2015-10-19T01:10:34.369Z,73202
2015-10-19T01:10:46.712Z,73196
2015-10-19T01:10:59.059Z,73200
2015-10-19T01:11:11.403Z,73195
2015-10-19T01:11:23.731Z,73193
2015-10-19T01:11:36.043Z,73188
2015-10-19T01:11:48.372Z,73187
2015-10-19T01:12:00.703Z,73185
2015-10-19T01:12:13.046Z,73192
2015-10-19T01:12:25.375Z,73199
2015-10-19T01:12:37.734Z,73201
2015-10-19T01:12:50.109Z,73198
2015-10-19T01:13:02.455Z,73196
2015-10-19T01:13:14.814Z,73201
2015-10-19T01:13:27.142Z,73197
2015-10-19T01:13:39.470Z,73200
2015-10-19T01:13:51.814Z,73195
2015-10-19T01:14:04.146Z,73198
2015-10-19T01:14:16.474Z,73196
2015-10-19T01:14:28.662Z,73205
2015-10-19T01:14:41.021Z,73201
2015-10-19T01:14:53.381Z,73203
2015-10-19T01:15:05.742Z,73196
2015-10-19T01:15:18.086Z,73194
2015-10-19T01:15:30.414Z,73200
2015-10-19T01:15:42.726Z,73204
2015-10-19T01:15:55.054Z,73204
2015-10-19T01:16:07.385Z,73208
2015-10-19T01:16:19.728Z,73209
2015-10-19T01:16:31.353Z,73211
2015-10-19T01:16:43.697Z,73213
2015-10-19T01:16:56.025Z,73210
2015-10-19T01:17:08.372Z,73206
2015-10-19T01:17:20.731Z,73210
2015-10-19T01:17:33.075Z,73210
2015-10-19T01:17:45.403Z,73206
2015-10-19T01:17:57.731Z,73201
2015-10-19T01:18:10.047Z,73206
2015-10-19T01:18:21.672Z,73207
2015-10-19T01:18:34.000Z,73203
2015-10-19T01:18:46.344Z,73207
2015-10-19T01:18:58.516Z,73202
2015-10-19T01:19:10.862Z,73200
2015-10-19T01:19:23.222Z,73203
2015-10-19T01:19:35.581Z,73197
2015-10-19T01:19:47.909Z,73196
2015-10-19T01:19:59.534Z,73197
2015-10-19T01:20:11.864Z,73200
2015-10-19T01:20:24.192Z,73199
2015-10-19T01:20:36.521Z,73204
2015-10-19T01:20:48.849Z,73201
2015-10-19T01:21:01.192Z,73204
2015-10-19T01:21:13.555Z,73207
2015-10-19T01:21:25.164Z,73209
2015-10-19T01:21:37.477Z,73208
2015-10-19T01:21:49.805Z,73207
2015-10-19T01:22:02.133Z,73203
2015-10-19T01:22:14.480Z,73204
2015-10-19T01:22:26.808Z,73201
2015-10-19T01:22:39.152Z,73206
2015-10-19T01:22:51.495Z,73199
2015-10-19T01:23:03.136Z,73200
2015-10-19T01:23:15.482Z,73204
2015-10-19T01:23:27.810Z,73204
2015-10-19T01:23:40.138Z,73197
2015-10-19T01:23:52.466Z,73199
2015-10-19T01:24:04.845Z,73194
2015-10-19T01:24:17.204Z,73196
2015-10-19T01:24:29.533Z,73198
2015-10-19T01:24:41.892Z,73192
2015-10-19T01:24:54.251Z,73191
2015-10-19T01:25:06.613Z,73195
2015-10-19T01:25:18.941Z,73191
2015-10-19T01:25:31.269Z,73194
2015-10-19T01:25:43.581Z,73199
2015-10-19T01:25:55.910Z,73201
2015-10-19T01:26:08.241Z,73201
2015-10-19T01:26:20.834Z,73197
2015-10-19T01:26:33.163Z,73200
2015-10-19T01:26:45.506Z,73206
2015-10-19T01:26:57.850Z,73200
2015-10-19T01:27:10.212Z,73203
2015-10-19T01:27:22.541Z,73200
2015-10-19T01:27:34.869Z,73201
2015-10-19T01:27:47.212Z,73201
2015-10-19T01:27:59.541Z,73202
2015-10-19T01:28:11.871Z,73198
2015-10-19T01:28:24.214Z,73197
2015-10-19T01:28:36.558Z,73198
2015-10-19T01:28:48.902Z,73199
2015-10-19T01:29:01.261Z,73201
2015-10-19T01:29:13.592Z,73201
2015-10-19T01:29:25.921Z,73204
2015-10-19T01:29:38.249Z,73200
2015-10-19T01:29:50.577Z,73203
2015-10-19T01:30:02.905Z,73204
2015-10-19T01:30:15.235Z,73209
2015-10-19T01:30:27.594Z,73213
2015-10-19T01:30:39.954Z,73214
2015-10-19T01:30:52.298Z,73217
2015-10-19T01:31:04.657Z,73214
2015-10-19T01:31:16.989Z,73209
2015-10-19T01:31:29.317Z,73205
2015-10-19T01:31:41.645Z,73205
2015-10-19T01:31:53.989Z,73205
2015-10-19T01:32:06.317Z,73204
2015-10-19T01:32:18.647Z,73209
2015-10-19T01:32:30.991Z,73212
2015-10-19T01:32:43.319Z,73215
2015-10-19T01:32:55.663Z,73210
2015-10-19T01:33:08.038Z,73212
2015-10-19T01:33:20.369Z,73212
2015-10-19T01:33:32.682Z,73210
2015-10-19T01:33:44.994Z,73209
2015-10-19T01:33:57.338Z,73206
2015-10-19T01:34:09.666Z,73212
2015-10-19T01:34:21.997Z,73208
2015-10-19T01:34:34.325Z,73209
2015-10-19T01:34:46.669Z,73211
2015-10-19T01:34:59.013Z,73204
2015-10-19T01:35:11.372Z,73210
2015-10-19T01:35:23.733Z,73210
2015-10-19T01:35:36.108Z,73205
2015-10-19T01:35:47.718Z,73204
2015-10-19T01:36:00.046Z,73203
2015-10-19T01:36:12.374Z,73200
2015-10-19T01:36:23.986Z,73200
2015-10-19T01:36:36.315Z,73199
2015-10-19T01:36:48.643Z,73203
2015-10-19T01:37:00.971Z,73207
2015-10-19T01:37:13.330Z,73201
2015-10-19T01:37:25.677Z,73205
2015-10-19T01:37:38.036Z,73206
2015-10-19T01:37:50.380Z,73202
2015-10-19T01:38:02.739Z,73198
2015-10-19T01:38:14.349Z,73203
2015-10-19T01:38:26.679Z,73194
2015-10-19T01:38:39.023Z,73192
2015-10-19T01:38:51.351Z,73194
2015-10-19T01:39:03.695Z,73193
2015-10-19T01:39:16.026Z,73198
2015-10-19T01:39:28.369Z,73191
2015-10-19T01:39:40.713Z,73193
2015-10-19T01:39:53.073Z,73196
2015-10-19T01:40:05.432Z,73196
2015-10-19T01:40:17.763Z,73198
2015-10-19T01:40:30.091Z,73197
2015-10-19T01:40:42.419Z,73195
2015-10-19T01:40:54.747Z,73197
2015-10-19T01:41:07.091Z,73197
2015-10-19T01:41:19.438Z,73195
2015-10-19T01:41:31.813Z,73197
2015-10-19T01:41:44.172Z,73193
2015-10-19T01:41:56.500Z,73199
2015-10-19T01:42:08.829Z,73191
2015-10-19T01:42:21.160Z,73194
2015-10-19T01:42:33.753Z,73191
2015-10-19T01:42:46.113Z,73195
2015-10-19T01:42:58.441Z,73189
2015-10-19T01:43:10.800Z,73188
2015-10-19T01:43:23.162Z,73195
2015-10-19T01:43:35.365Z,73195
2015-10-19T01:43:47.693Z,73192
2015-10-19T01:44:00.037Z,73193
2015-10-19T01:44:12.365Z,73192
2015-10-19T01:44:24.696Z,73188
2015-10-19T01:44:37.024Z,73186
2015-10-19T01:44:49.352Z,73189
2015-10-19T01:45:01.680Z,73191
2015-10-19T01:45:14.024Z,73189
2015-10-19T01:45:26.371Z,73195
2015-10-19T01:45:38.730Z,73194
2015-10-19T01:45:51.074Z,73197
2015-10-19T01:46:03.449Z,73197
2015-10-19T01:46:15.761Z,73196
2015-10-19T01:46:28.092Z,73193
2015-10-19T01:46:40.420Z,73193
2015-10-19T01:46:52.748Z,73194
2015-10-19T01:47:05.076Z,73199
2015-10-19T01:47:17.404Z,73198
2015-10-19T01:47:29.735Z,73200
2015-10-19T01:47:42.079Z,73204
2015-10-19T01:47:54.423Z,73197
2015-10-19T01:48:06.782Z,73197
2015-10-19T01:48:19.141Z,73195
2015-10-19T01:48:31.504Z,73196
2015-10-19T01:48:43.832Z,73203
2015-10-19T01:48:56.160Z,73195
2015-10-19T01:49:08.504Z,73196
2015-10-19T01:49:20.832Z,73197
2015-10-19T01:49:33.146Z,73198
2015-10-19T01:49:45.475Z,73192
2015-10-19T01:49:57.803Z,73196
2015-10-19T01:50:09.443Z,73197
2015-10-19T01:50:21.787Z,73195
2015-10-19T01:50:34.166Z,73194
2015-10-19T01:50:46.525Z,73194
2015-10-19T01:50:58.854Z,73196
2015-10-19T01:51:11.182Z,73194
2015-10-19T01:51:23.510Z,73197
2015-10-19T01:51:35.824Z,73196
2015-10-19T01:51:48.184Z,73194
2015-10-19T01:52:00.527Z,73195
2015-10-19T01:52:12.168Z,73189
2015-10-19T01:52:24.527Z,73195
2015-10-19T01:52:36.889Z,73194
2015-10-19T01:52:49.233Z,73194
2015-10-19T01:53:01.561Z,73198
2015-10-19T01:53:13.889Z,73197
2015-10-19T01:53:26.217Z,73191
2015-10-19T01:53:38.548Z,73191
2015-10-19T01:53:50.892Z,73193
2015-10-19T01:54:03.220Z,73194
2015-10-19T01:54:15.548Z,73192
2015-10-19T01:54:27.895Z,73195
2015-10-19T01:54:40.098Z,73196
2015-10-19T01:54:52.442Z,73192
2015-10-19T01:55:04.614Z,73195
2015-10-19T01:55:16.942Z,73195
2015-10-19T01:55:29.272Z,73195
2015-10-19T01:55:41.616Z,73196
2015-10-19T01:55:53.959Z,73193
2015-10-19T01:56:06.303Z,73197
2015-10-19T01:56:18.506Z,73194
2015-10-19T01:56:30.884Z,73199
2015-10-19T01:56:43.212Z,73201
2015-10-19T01:56:55.540Z,73193
2015-10-19T01:57:07.884Z,73200
2015-10-19T01:57:20.212Z,73196
2015-10-19T01:57:32.543Z,73203
2015-10-19T01:57:44.872Z,73200
2015-10-19T01:57:57.200Z,73200
2015-10-19T01:58:09.543Z,73199
2015-10-19T01:58:21.887Z,73191
2015-10-19T01:58:34.234Z,73198
2015-10-19T01:58:46.578Z,73198
2015-10-19T01:58:58.890Z,73202
2015-10-19T01:59:11.203Z,73201
2015-10-19T01:59:23.515Z,73200
2015-10-19T01:59:35.846Z,73193
2015-10-19T01:59:48.159Z,73197
2015-10-19T02:00:00.471Z,73189
2015-10-19T02:00:12.815Z,73186
2015-10-19T02:00:25.159Z,73187
2015-10-19T02:00:37.505Z,73185
2015-10-19T02:00:49.833Z,73187
2015-10-19T02:01:02.161Z,73196
2015-10-19T02:01:14.489Z,73195
2015-10-19T02:01:26.817Z,73197
2015-10-19T02:01:39.164Z,73196
2015-10-19T02:01:51.523Z,73194
2015-10-19T02:02:03.867Z,73192
2015-10-19T02:02:16.226Z,73194
2015-10-19T02:02:28.570Z,73189
2015-10-19T02:02:40.916Z,73192
2015-10-19T02:02:53.244Z,73189
2015-10-19T02:03:05.588Z,73189
2015-10-19T02:03:17.916Z,73188
2015-10-19T02:03:30.228Z,73194
2015-10-19T02:03:42.560Z,73189
2015-10-19T02:03:54.889Z,73191
2015-10-19T02:04:07.217Z,73183
2015-10-19T02:04:19.560Z,73186
2015-10-19T02:04:31.904Z,73186
2015-10-19T02:04:44.266Z,73188
2015-10-19T02:04:56.453Z,73186
2015-10-19T02:05:08.766Z,73185
2015-10-19T02:05:21.094Z,73186
2015-10-19T02:05:33.425Z,73185
2015-10-19T02:05:45.769Z,73188
2015-10-19T02:05:58.097Z,73180
2015-10-19T02:06:10.425Z,73186
2015-10-19T02:06:22.769Z,73181
2015-10-19T02:06:34.942Z,73179
2015-10-19T02:06:47.317Z,73180
2015-10-19T02:06:59.708Z,73181
2015-10-19T02:07:12.036Z,73189
2015-10-19T02:07:24.364Z,73180
2015-10-19T02:07:36.695Z,73179
2015-10-19T02:07:48.336Z,73182
2015-10-19T02:08:00.664Z,73182
2015-10-19T02:08:13.024Z,73189
2015-10-19T02:08:25.383Z,73188
2015-10-19T02:08:37.730Z,73186
2015-10-19T02:08:50.058Z,73189
2015-10-19T02:09:02.386Z,73185
2015-10-19T02:09:13.995Z,73189
2015-10-19T02:09:26.323Z,73188
2015-10-19T02:09:38.670Z,73184
2015-10-19T02:09:50.998Z,73186
2015-10-19T02:10:03.186Z,73183
2015-10-19T02:10:15.530Z,73182
2015-10-19T02:10:27.858Z,73181
2015-10-19T02:10:40.235Z,73179
2015-10-19T02:10:52.563Z,73181
2015-10-19T02:11:04.891Z,73175
2015-10-19T02:11:17.219Z,73178
2015-10-19T02:11:29.563Z,73179
2015-10-19T02:11:41.894Z,73175
2015-10-19T02:11:54.238Z,73175
2015-10-19T02:12:06.566Z,73175
2015-10-19T02:12:18.925Z,73173
2015-10-19T02:12:31.285Z,73187
2015-10-19T02:12:43.600Z,73181
2015-10-19T02:12:55.944Z,73182
2015-10-19T02:13:08.272Z,73183
2015-10-19T02:13:20.600Z,73181
2015-10-19T02:13:32.944Z,73181
2015-10-19T02:13:45.259Z,73179
2015-10-19T02:13:57.603Z,73186
2015-10-19T02:14:09.228Z,73188
2015-10-19T02:14:21.572Z,73186
2015-10-19T02:14:33.931Z,73187
2015-10-19T02:14:46.293Z,73188
2015-10-19T02:14:58.652Z,73188
2015-10-19T02:15:10.996Z,73183
2015-10-19T02:15:23.324Z,73180
2015-10-19T02:15:35.636Z,73181
2015-10-19T02:15:47.967Z,73179
2015-10-19T02:16:00.296Z,73186
2015-10-19T02:16:12.624Z,73179
2015-10-19T02:16:24.967Z,73179
2015-10-19T02:16:37.311Z,73178
2015-10-19T02:16:49.658Z,73174
2015-10-19T02:17:02.002Z,73171
2015-10-19T02:17:14.330Z,73177
2015-10-19T02:17:26.642Z,73171
2015-10-19T02:17:38.986Z,73177
2015-10-19T02:17:51.333Z,73180
2015-10-19T02:18:03.661Z,73172
2015-10-19T02:18:15.989Z,73182
2015-10-19T02:18:28.333Z,73178
2015-10-19T02:18:40.677Z,73171
2015-10-19T02:18:53.039Z,73181
2015-10-19T02:19:05.398Z,73177
2015-10-19T02:19:17.726Z,73177
2015-10-19T02:19:30.055Z,73182
2015-10-19T02:19:42.383Z,73177
2015-10-19T02:19:54.713Z,73182
2015-10-19T02:20:07.057Z,73185
2015-10-19T02:20:19.385Z,73187
2015-10-19T02:20:31.713Z,73181
2015-10-19T02:20:44.044Z,73184
2015-10-19T02:20:56.388Z,73180
2015-10-19T02:21:08.763Z,73184
2015-10-19T02:21:21.106Z,73181
2015-10-19T02:21:33.435Z,73182
2015-10-19T02:21:45.765Z,73182
2015-10-19T02:21:58.093Z,73181
2015-10-19T02:22:10.437Z,73188
2015-10-19T02:22:22.765Z,73184
2015-10-19T02:22:35.108Z,73190
2015-10-19T02:22:47.486Z,73188
2015-10-19T02:22:59.846Z,73184
2015-10-19T02:23:12.205Z,73185
2015-10-19T02:23:24.596Z,73186
2015-10-19T02:23:36.924Z,73184
2015-10-19T02:23:49.255Z,73186
2015-10-19T02:24:01.583Z,73185
2015-10-19T02:24:13.911Z,73185
2015-10-19T02:24:26.239Z,73179
2015-10-19T02:24:38.568Z,73182
2015-10-19T02:24:50.898Z,73185
2015-10-19T02:25:03.241Z,73182
2015-10-19T02:25:15.601Z,73184
2015-10-19T02:25:27.960Z,73186
2015-10-19T02:25:40.320Z,73184
2015-10-19T02:25:52.651Z,73182
2015-10-19T02:26:04.979Z,73184
2015-10-19T02:26:17.291Z,73182
2015-10-19T02:26:29.619Z,73176
2015-10-19T02:26:41.948Z,73178
2015-10-19T02:26:54.279Z,73178
2015-10-19T02:27:06.622Z,73178
2015-10-19T02:27:18.966Z,73182
2015-10-19T02:27:31.326Z,73182
2015-10-19T02:27:43.669Z,73180
2015-10-19T02:27:56.000Z,73177
2015-10-19T02:28:08.329Z,73184
2015-10-19T02:28:20.672Z,73176
2015-10-19T02:28:33.000Z,73179
2015-10-19T02:28:45.313Z,73181
2015-10-19T02:28:57.643Z,73183
2015-10-19T02:29:09.987Z,73183
2015-10-19T02:29:22.331Z,73183
2015-10-19T02:29:34.674Z,73183
2015-10-19T02:29:47.034Z,73184
2015-10-19T02:29:59.365Z,73180
2015-10-19T02:30:11.693Z,73182
2015-10-19T02:30:24.021Z,73188
2015-10-19T02:30:36.349Z,73183
2015-10-19T02:30:48.677Z,73180
2015-10-19T02:31:01.008Z,73182
2015-10-19T02:31:13.352Z,73179
2015-10-19T02:31:25.696Z,73183
2015-10-19T02:31:38.040Z,73181
2015-10-19T02:31:50.399Z,73182
2015-10-19T02:32:02.730Z,73184
2015-10-19T02:32:15.058Z,73182
2015-10-19T02:32:27.402Z,73185
2015-10-19T02:32:39.011Z,73186
2015-10-19T02:32:51.355Z,73183
2015-10-19T02:33:03.686Z,73180
2015-10-19T02:33:15.296Z,73178
2015-10-19T02:33:27.655Z,73174
2015-10-19T02:33:39.999Z,73174
2015-10-19T02:33:52.358Z,73177
2015-10-19T02:34:04.751Z,73175
2015-10-19T02:34:17.095Z,73179
2015-10-19T02:34:29.438Z,73182
2015-10-19T02:34:41.766Z,73182
2015-10-19T02:34:54.079Z,73183
2015-10-19T02:35:06.425Z,73187
2015-10-19T02:35:18.753Z,73184
2015-10-19T02:35:31.081Z,73182
2015-10-19T02:35:43.425Z,73181
2015-10-19T02:35:55.784Z,73177
2015-10-19T02:36:08.146Z,73179
2015-10-19T02:36:20.521Z,73180
2015-10-19T02:36:32.834Z,73181
2015-10-19T02:36:45.162Z,73177
2015-10-19T02:36:57.478Z,73176
2015-10-19T02:37:09.806Z,73177
2015-10-19T02:37:22.384Z,73179
2015-10-19T02:37:34.712Z,73181
2015-10-19T02:37:47.040Z,73179
2015-10-19T02:37:59.387Z,73185
2015-10-19T02:38:11.731Z,73186
2015-10-19T02:38:24.090Z,73185
2015-10-19T02:38:36.418Z,73188